WZZ3WF LHBP-LRTM
Flight info
| Callsign | WZZ3WF |
|---|---|
| Flight time | 0h 42m |
| Altitude | 37000 |
| Route | GAZDA DCT MAVIR DCT TIXIP DCT IBINU |
| Aircraft | A321/M-SDE1E2E3FGIJ1J4RWXY/LB1 |
Departure
| Time | 2026-05-06 15:34 |
|---|---|
| Airport | Budapest Liszt Ferenc International Airport (LHBP) |
Arrival
| Time | 2026-05-06 16:16 |
|---|---|
| Airport | Târgu Mureş Transilvania International Airport (LRTM) |
| Time | Latitude | Longitude | Altitude | Speed | Heading |
|---|---|---|---|---|---|
| 2026-05-06 15:06 | 47.43424 | 19.26617 | 457 ft | 0 kts | 224° |
| 2026-05-06 15:25 | 47.43424 | 19.26618 | 457 ft | 1 kts | 224° |
| 2026-05-06 15:25 | 47.43434 | 19.26631 | 456 ft | 3 kts | 224° |
| 2026-05-06 15:26 | 47.43447 | 19.26650 | 456 ft | 3 kts | 224° |
| 2026-05-06 15:26 | 47.43461 | 19.26670 | 455 ft | 3 kts | 249° |
| 2026-05-06 15:26 | 47.43462 | 19.26696 | 454 ft | 3 kts | 308° |
| 2026-05-06 15:26 | 47.43447 | 19.26713 | 457 ft | 3 kts | 329° |
| 2026-05-06 15:27 | 47.43433 | 19.26728 | 455 ft | 3 kts | 310° |
| 2026-05-06 15:27 | 47.43431 | 19.26731 | 455 ft | 0 kts | 310° |
| 2026-05-06 15:29 | 47.43432 | 19.26730 | 455 ft | 1 kts | 310° |
| 2026-05-06 15:29 | 47.43444 | 19.26710 | 456 ft | 4 kts | 310° |
| 2026-05-06 15:30 | 47.43470 | 19.26665 | 456 ft | 8 kts | 312° |
| 2026-05-06 15:30 | 47.43529 | 19.26570 | 458 ft | 16 kts | 312° |
| 2026-05-06 15:30 | 47.43608 | 19.26444 | 457 ft | 18 kts | 313° |
| 2026-05-06 15:30 | 47.43700 | 19.26362 | 457 ft | 15 kts | 17° |
| 2026-05-06 15:31 | 47.43787 | 19.26417 | 457 ft | 13 kts | 330° |
| 2026-05-06 15:31 | 47.43854 | 19.26311 | 458 ft | 15 kts | 312° |
| 2026-05-06 15:31 | 47.43923 | 19.26206 | 458 ft | 12 kts | 326° |
| 2026-05-06 15:32 | 47.43992 | 19.26256 | 459 ft | 0 kts | 42° |
| 2026-05-06 15:32 | 47.43995 | 19.26261 | 459 ft | 4 kts | 42° |
| 2026-05-06 15:33 | 47.44046 | 19.26341 | 464 ft | 16 kts | 57° |
| 2026-05-06 15:33 | 47.44068 | 19.26511 | 470 ft | 18 kts | 106° |
| 2026-05-06 15:33 | 47.43966 | 19.26691 | 470 ft | 40 kts | 132° |
| 2026-05-06 15:33 | 47.43599 | 19.27281 | 474 ft | 112 kts | 132° |
| 2026-05-06 15:34 | 47.42942 | 19.28340 | 468 ft | 167 kts | 136° |
| 2026-05-06 15:34 | 47.42175 | 19.29587 | 1164 ft | 163 kts | 134° |
| 2026-05-06 15:34 | 47.41577 | 19.31065 | 1828 ft | 171 kts | 125° |
| 2026-05-06 15:34 | 47.40976 | 19.32705 | 2193 ft | 192 kts | 124° |
| 2026-05-06 15:35 | 47.40288 | 19.34529 | 2458 ft | 214 kts | 124° |
| 2026-05-06 15:35 | 47.39524 | 19.36551 | 2649 ft | 238 kts | 123° |
| 2026-05-06 15:35 | 47.38672 | 19.38718 | 3246 ft | 244 kts | 129° |
| 2026-05-06 15:35 | 47.37441 | 19.40486 | 3736 ft | 254 kts | 155° |
| 2026-05-06 15:36 | 47.35761 | 19.41183 | 4406 ft | 253 kts | 181° |
| 2026-05-06 15:36 | 47.34051 | 19.40661 | 5157 ft | 254 kts | 207° |
| 2026-05-06 15:36 | 47.32691 | 19.39021 | 5934 ft | 257 kts | 233° |
| 2026-05-06 15:36 | 47.31784 | 19.36720 | 6619 ft | 262 kts | 237° |
| 2026-05-06 15:37 | 47.30579 | 19.34729 | 7094 ft | 262 kts | 215° |
| 2026-05-06 15:37 | 47.28921 | 19.33616 | 7860 ft | 266 kts | 192° |
| 2026-05-06 15:37 | 47.27068 | 19.33665 | 8602 ft | 274 kts | 167° |
| 2026-05-06 15:37 | 47.25368 | 19.34994 | 9314 ft | 286 kts | 140° |
| 2026-05-06 15:38 | 47.24161 | 19.37374 | 10016 ft | 295 kts | 124° |
| 2026-05-06 15:38 | 47.23087 | 19.40076 | 10246 ft | 318 kts | 123° |
| 2026-05-06 15:38 | 47.21930 | 19.42977 | 10403 ft | 339 kts | 123° |
| 2026-05-06 15:38 | 47.20714 | 19.46001 | 10880 ft | 347 kts | 123° |
| 2026-05-06 15:39 | 47.19474 | 19.49064 | 11486 ft | 351 kts | 123° |
| 2026-05-06 15:39 | 47.18221 | 19.52162 | 12102 ft | 355 kts | 123° |
| 2026-05-06 15:39 | 47.16952 | 19.55292 | 12716 ft | 358 kts | 123° |
| 2026-05-06 15:39 | 47.15667 | 19.58453 | 13331 ft | 362 kts | 123° |
| 2026-05-06 15:40 | 47.14384 | 19.61598 | 13907 ft | 365 kts | 124° |
| 2026-05-06 15:40 | 47.13070 | 19.64811 | 14466 ft | 368 kts | 123° |
| 2026-05-06 15:40 | 47.11748 | 19.68042 | 15019 ft | 371 kts | 124° |
| 2026-05-06 15:40 | 47.10412 | 19.71294 | 15602 ft | 374 kts | 123° |
| 2026-05-06 15:41 | 47.09075 | 19.74574 | 16216 ft | 375 kts | 123° |
| 2026-05-06 15:41 | 47.07733 | 19.77868 | 16817 ft | 377 kts | 124° |
| 2026-05-06 15:41 | 47.06373 | 19.81178 | 17391 ft | 380 kts | 124° |
| 2026-05-06 15:41 | 47.05004 | 19.84510 | 17953 ft | 383 kts | 124° |
| 2026-05-06 15:42 | 47.03626 | 19.87863 | 18479 ft | 386 kts | 124° |
| 2026-05-06 15:42 | 47.02233 | 19.91240 | 18948 ft | 389 kts | 124° |
| 2026-05-06 15:42 | 47.00825 | 19.94648 | 19434 ft | 392 kts | 124° |
| 2026-05-06 15:42 | 46.99406 | 19.98078 | 19892 ft | 396 kts | 124° |
| 2026-05-06 15:43 | 46.97969 | 20.01542 | 20371 ft | 399 kts | 124° |
| 2026-05-06 15:43 | 46.96528 | 20.05034 | 20836 ft | 403 kts | 123° |
| 2026-05-06 15:43 | 46.95070 | 20.08557 | 21286 ft | 407 kts | 123° |
| 2026-05-06 15:43 | 46.93595 | 20.12111 | 21759 ft | 410 kts | 123° |
| 2026-05-06 15:44 | 46.92100 | 20.15687 | 22210 ft | 414 kts | 123° |
| 2026-05-06 15:44 | 46.90598 | 20.19294 | 22656 ft | 417 kts | 123° |
| 2026-05-06 15:44 | 46.89086 | 20.22933 | 23093 ft | 420 kts | 123° |
| 2026-05-06 15:44 | 46.87558 | 20.26599 | 23506 ft | 424 kts | 123° |
| 2026-05-06 15:45 | 46.86015 | 20.30289 | 23863 ft | 427 kts | 123° |
| 2026-05-06 15:45 | 46.84456 | 20.33996 | 24208 ft | 430 kts | 123° |
| 2026-05-06 15:45 | 46.82893 | 20.37732 | 24547 ft | 433 kts | 123° |
| 2026-05-06 15:45 | 46.81318 | 20.41499 | 24884 ft | 436 kts | 123° |
| 2026-05-06 15:46 | 46.79732 | 20.45275 | 25217 ft | 438 kts | 123° |
| 2026-05-06 15:46 | 46.78131 | 20.49083 | 25528 ft | 441 kts | 123° |
| 2026-05-06 15:46 | 46.76517 | 20.52905 | 25840 ft | 444 kts | 123° |
| 2026-05-06 15:46 | 46.74910 | 20.56704 | 26151 ft | 447 kts | 123° |
| 2026-05-06 15:47 | 46.73251 | 20.60622 | 26469 ft | 450 kts | 123° |
| 2026-05-06 15:47 | 46.71615 | 20.64518 | 26768 ft | 452 kts | 123° |
| 2026-05-06 15:47 | 46.69960 | 20.68436 | 27067 ft | 455 kts | 124° |
| 2026-05-06 15:47 | 46.68308 | 20.72313 | 27349 ft | 458 kts | 123° |
| 2026-05-06 15:48 | 46.66628 | 20.76262 | 27636 ft | 460 kts | 123° |
| 2026-05-06 15:48 | 46.64941 | 20.80241 | 27919 ft | 463 kts | 121° |
| 2026-05-06 15:48 | 46.63560 | 20.84502 | 28201 ft | 467 kts | 113° |
| 2026-05-06 15:48 | 46.62357 | 20.88908 | 28454 ft | 470 kts | 113° |
| 2026-05-06 15:49 | 46.61130 | 20.93324 | 28714 ft | 472 kts | 113° |
| 2026-05-06 15:49 | 46.59875 | 20.97757 | 28976 ft | 475 kts | 113° |
| 2026-05-06 15:49 | 46.58618 | 21.02205 | 29234 ft | 477 kts | 113° |
| 2026-05-06 15:49 | 46.57352 | 21.06673 | 29468 ft | 479 kts | 113° |
| 2026-05-06 15:50 | 46.56083 | 21.11161 | 29681 ft | 482 kts | 113° |
| 2026-05-06 15:50 | 46.54795 | 21.15677 | 29902 ft | 484 kts | 114° |
| 2026-05-06 15:50 | 46.53506 | 21.20208 | 30119 ft | 487 kts | 113° |
| 2026-05-06 15:50 | 46.52212 | 21.24757 | 30312 ft | 489 kts | 113° |
| 2026-05-06 15:51 | 46.50908 | 21.29326 | 30523 ft | 490 kts | 114° |
| 2026-05-06 15:51 | 46.49594 | 21.33901 | 30724 ft | 492 kts | 113° |
| 2026-05-06 15:51 | 46.48283 | 21.38492 | 30937 ft | 493 kts | 113° |
| 2026-05-06 15:51 | 46.46967 | 21.43073 | 31235 ft | 492 kts | 113° |
| 2026-05-06 15:52 | 46.45652 | 21.47648 | 31530 ft | 491 kts | 113° |
| 2026-05-06 15:52 | 46.44336 | 21.52209 | 31814 ft | 490 kts | 113° |
| 2026-05-06 15:52 | 46.43019 | 21.56762 | 32098 ft | 490 kts | 113° |
| 2026-05-06 15:52 | 46.41707 | 21.61315 | 32368 ft | 489 kts | 113° |
| 2026-05-06 15:53 | 46.40389 | 21.65859 | 32632 ft | 489 kts | 114° |
| 2026-05-06 15:53 | 46.39086 | 21.70341 | 32900 ft | 489 kts | 113° |
| 2026-05-06 15:53 | 46.37751 | 21.74937 | 33164 ft | 489 kts | 114° |
| 2026-05-06 15:53 | 46.36444 | 21.79404 | 33433 ft | 487 kts | 114° |
| 2026-05-06 15:54 | 46.35138 | 21.83861 | 33457 ft | 476 kts | 114° |
| 2026-05-06 15:54 | 46.33862 | 21.88243 | 33066 ft | 469 kts | 114° |
| 2026-05-06 15:54 | 46.32596 | 21.92562 | 32931 ft | 465 kts | 114° |
| 2026-05-06 15:54 | 46.31321 | 21.96886 | 32966 ft | 470 kts | 114° |
| 2026-05-06 15:55 | 46.28755 | 22.05609 | 32958 ft | 472 kts | 114° |
| 2026-05-06 15:55 | 46.26175 | 22.14340 | 32959 ft | 472 kts | 114° |
| 2026-05-06 15:56 | 46.24885 | 22.18709 | 32781 ft | 473 kts | 114° |
| 2026-05-06 15:56 | 46.23580 | 22.23101 | 31863 ft | 479 kts | 114° |
| 2026-05-06 15:56 | 46.22270 | 22.27501 | 31321 ft | 473 kts | 114° |
| 2026-05-06 15:56 | 46.20981 | 22.31835 | 30840 ft | 467 kts | 114° |
| 2026-05-06 15:57 | 46.19705 | 22.36124 | 30299 ft | 463 kts | 114° |
| 2026-05-06 15:57 | 46.18439 | 22.40369 | 29738 ft | 458 kts | 114° |
| 2026-05-06 15:57 | 46.17186 | 22.44554 | 29207 ft | 451 kts | 114° |
| 2026-05-06 15:57 | 46.15944 | 22.48681 | 28706 ft | 445 kts | 114° |
| 2026-05-06 15:58 | 46.14718 | 22.52743 | 28208 ft | 439 kts | 114° |
| 2026-05-06 15:58 | 46.13515 | 22.56757 | 27704 ft | 433 kts | 114° |
| 2026-05-06 15:58 | 46.12329 | 22.60721 | 27207 ft | 428 kts | 114° |
| 2026-05-06 15:58 | 46.11150 | 22.64638 | 26712 ft | 424 kts | 114° |
| 2026-05-06 15:59 | 46.09979 | 22.68519 | 26220 ft | 420 kts | 114° |
| 2026-05-06 15:59 | 46.08813 | 22.72359 | 25729 ft | 417 kts | 114° |
| 2026-05-06 15:59 | 46.07652 | 22.76172 | 25220 ft | 414 kts | 114° |
| 2026-05-06 15:59 | 46.06498 | 22.79958 | 24741 ft | 412 kts | 114° |
| 2026-05-06 16:00 | 46.05350 | 22.83721 | 24239 ft | 410 kts | 114° |
| 2026-05-06 16:00 | 46.04208 | 22.87472 | 23764 ft | 408 kts | 114° |
| 2026-05-06 16:00 | 46.03073 | 22.91211 | 23212 ft | 407 kts | 114° |
| 2026-05-06 16:00 | 46.01955 | 22.94867 | 22719 ft | 403 kts | 114° |
| 2026-05-06 16:01 | 46.00829 | 22.98537 | 22237 ft | 399 kts | 114° |
| 2026-05-06 16:01 | 45.99718 | 23.02170 | 21733 ft | 395 kts | 114° |
| 2026-05-06 16:01 | 45.98615 | 23.05768 | 21241 ft | 391 kts | 114° |
| 2026-05-06 16:01 | 45.97519 | 23.09325 | 20744 ft | 387 kts | 115° |
| 2026-05-06 16:02 | 45.96437 | 23.12845 | 20258 ft | 383 kts | 115° |
| 2026-05-06 16:02 | 45.95366 | 23.16327 | 19768 ft | 379 kts | 115° |
| 2026-05-06 16:02 | 45.94302 | 23.19769 | 19263 ft | 376 kts | 115° |
| 2026-05-06 16:02 | 45.93433 | 23.23289 | 18777 ft | 373 kts | 102° |
| 2026-05-06 16:03 | 45.93284 | 23.26981 | 18294 ft | 370 kts | 84° |
| 2026-05-06 16:03 | 45.93906 | 23.30531 | 17766 ft | 366 kts | 65° |
| 2026-05-06 16:03 | 45.95231 | 23.33599 | 17299 ft | 359 kts | 50° |
| 2026-05-06 16:03 | 45.96846 | 23.36311 | 16816 ft | 355 kts | 49° |
| 2026-05-06 16:04 | 45.98456 | 23.38974 | 16347 ft | 351 kts | 49° |
| 2026-05-06 16:04 | 46.00049 | 23.41611 | 15874 ft | 348 kts | 49° |
| 2026-05-06 16:04 | 46.01623 | 23.44230 | 15396 ft | 345 kts | 49° |
| 2026-05-06 16:04 | 46.03177 | 23.46845 | 14927 ft | 342 kts | 50° |
| 2026-05-06 16:05 | 46.04722 | 23.49434 | 14443 ft | 340 kts | 50° |
| 2026-05-06 16:05 | 46.06262 | 23.52006 | 13969 ft | 338 kts | 50° |
| 2026-05-06 16:05 | 46.07788 | 23.54570 | 13475 ft | 336 kts | 50° |
| 2026-05-06 16:05 | 46.09299 | 23.57118 | 12997 ft | 333 kts | 50° |
| 2026-05-06 16:06 | 46.10796 | 23.59640 | 12548 ft | 329 kts | 50° |
| 2026-05-06 16:06 | 46.12279 | 23.62135 | 12095 ft | 326 kts | 50° |
| 2026-05-06 16:06 | 46.13753 | 23.64602 | 11653 ft | 324 kts | 50° |
| 2026-05-06 16:06 | 46.15211 | 23.67060 | 11193 ft | 321 kts | 50° |
| 2026-05-06 16:07 | 46.16656 | 23.69507 | 10765 ft | 320 kts | 50° |
| 2026-05-06 16:07 | 46.18092 | 23.71942 | 10327 ft | 318 kts | 50° |
| 2026-05-06 16:07 | 46.19520 | 23.74358 | 9988 ft | 313 kts | 50° |
| 2026-05-06 16:07 | 46.20890 | 23.76666 | 9814 ft | 303 kts | 50° |
| 2026-05-06 16:08 | 46.22268 | 23.79007 | 9375 ft | 301 kts | 50° |
| 2026-05-06 16:08 | 46.23620 | 23.81301 | 8969 ft | 299 kts | 51° |
| 2026-05-06 16:08 | 46.24951 | 23.83554 | 8597 ft | 298 kts | 50° |
| 2026-05-06 16:08 | 46.26293 | 23.85818 | 8196 ft | 296 kts | 51° |
| 2026-05-06 16:09 | 46.27622 | 23.88070 | 7813 ft | 294 kts | 51° |
| 2026-05-06 16:09 | 46.28942 | 23.90315 | 7425 ft | 292 kts | 51° |
| 2026-05-06 16:09 | 46.30271 | 23.92581 | 7059 ft | 290 kts | 51° |
| 2026-05-06 16:09 | 46.31564 | 23.94779 | 6744 ft | 285 kts | 51° |
| 2026-05-06 16:10 | 46.32847 | 23.96964 | 6377 ft | 284 kts | 51° |
| 2026-05-06 16:10 | 46.34107 | 23.99113 | 5977 ft | 284 kts | 51° |
| 2026-05-06 16:10 | 46.35399 | 24.01312 | 5611 ft | 282 kts | 51° |
| 2026-05-06 16:10 | 46.36647 | 24.03451 | 5258 ft | 281 kts | 51° |
| 2026-05-06 16:11 | 46.37888 | 24.05576 | 5118 ft | 271 kts | 51° |
| 2026-05-06 16:11 | 46.39084 | 24.07622 | 4996 ft | 261 kts | 51° |
| 2026-05-06 16:11 | 46.40236 | 24.09588 | 4869 ft | 251 kts | 51° |
| 2026-05-06 16:11 | 46.40916 | 24.10941 | 4762 ft | 243 kts | 66° |
| 2026-05-06 16:12 | 46.41409 | 24.13223 | 4475 ft | 236 kts | 78° |
| 2026-05-06 16:12 | 46.41802 | 24.15537 | 4145 ft | 236 kts | 78° |
| 2026-05-06 16:12 | 46.42193 | 24.17799 | 3953 ft | 226 kts | 78° |
| 2026-05-06 16:12 | 46.42585 | 24.19975 | 3714 ft | 218 kts | 77° |
| 2026-05-06 16:13 | 46.42984 | 24.22003 | 3424 ft | 200 kts | 76° |
| 2026-05-06 16:13 | 46.43358 | 24.23872 | 3159 ft | 186 kts | 76° |
| 2026-05-06 16:13 | 46.43701 | 24.25602 | 2953 ft | 170 kts | 76° |
| 2026-05-06 16:13 | 46.44013 | 24.27182 | 2735 ft | 158 kts | 77° |
| 2026-05-06 16:14 | 46.44310 | 24.28694 | 2529 ft | 154 kts | 77° |
| 2026-05-06 16:14 | 46.44603 | 24.30189 | 2329 ft | 155 kts | 76° |
| 2026-05-06 16:14 | 46.44896 | 24.31680 | 2121 ft | 153 kts | 77° |
| 2026-05-06 16:14 | 46.45188 | 24.33168 | 1939 ft | 154 kts | 76° |
| 2026-05-06 16:15 | 46.45480 | 24.34656 | 1750 ft | 153 kts | 76° |
| 2026-05-06 16:15 | 46.45770 | 24.36135 | 1552 ft | 152 kts | 75° |
| 2026-05-06 16:15 | 46.46059 | 24.37611 | 1355 ft | 152 kts | 76° |
| 2026-05-06 16:15 | 46.46347 | 24.39077 | 1150 ft | 153 kts | 75° |
| 2026-05-06 16:16 | 46.46642 | 24.40581 | 978 ft | 149 kts | 75° |
| 2026-05-06 16:16 | 46.46866 | 24.41714 | 973 ft | 78 kts | 74° |
| 2026-05-06 16:16 | 46.46945 | 24.42114 | 978 ft | 26 kts | 76° |
| 2026-05-06 16:16 | 46.46913 | 24.42248 | 977 ft | 14 kts | 158° |
| 2026-05-06 16:17 | 46.46837 | 24.42305 | 976 ft | 7 kts | 110° |
| 2026-05-06 16:17 | 46.46847 | 24.42362 | 977 ft | 7 kts | 75° |
| 2026-05-06 16:17 | 46.46841 | 24.42414 | 975 ft | 2 kts | 158° |
| 2026-05-06 16:17 | 46.46832 | 24.42404 | 978 ft | 2 kts | 223° |
| 2026-05-06 16:18 | 46.46813 | 24.42344 | 974 ft | 10 kts | 251° |
| 2026-05-06 16:18 | 46.46793 | 24.42251 | 980 ft | 0 kts | 255° |
| 2026-05-06 16:18 | 46.46793 | 24.42249 | 979 ft | 0 kts | 255° |